sensor_id;sensor_type;location;lat;lon;timestamp;P1;durP1;ratioP1;P2;durP2;ratioP2
1545;SDS011;766;51.502;9.752;2022-12-18T00:00:28;10.07;;;3.83;;
1545;SDS011;766;51.502;9.752;2022-12-18T00:03:01;11.20;;;4.73;;
1545;SDS011;766;51.502;9.752;2022-12-18T00:05:52;8.03;;;4.10;;
1545;SDS011;766;51.502;9.752;2022-12-18T00:08:29;9.33;;;4.47;;
1545;SDS011;766;51.502;9.752;2022-12-18T00:11:12;11.37;;;4.57;;
1545;SDS011;766;51.502;9.752;2022-12-18T00:13:59;12.10;;;4.67;;
1545;SDS011;766;51.502;9.752;2022-12-18T00:16:44;10.37;;;4.57;;
1545;SDS011;766;51.502;9.752;2022-12-18T00:19:22;12.70;;;4.77;;
1545;SDS011;766;51.502;9.752;2022-12-18T00:21:59;6.30;;;3.07;;
1545;SDS011;766;51.502;9.752;2022-12-18T00:24:35;6.43;;;3.60;;
1545;SDS011;766;51.502;9.752;2022-12-18T00:27:08;8.27;;;4.17;;
1545;SDS011;766;51.502;9.752;2022-12-18T00:29:45;12.07;;;5.13;;
1545;SDS011;766;51.502;9.752;2022-12-18T00:32:37;7.50;;;4.33;;
1545;SDS011;766;51.502;9.752;2022-12-18T00:35:12;12.13;;;4.53;;
1545;SDS011;766;51.502;9.752;2022-12-18T00:37:44;9.90;;;4.60;;
1545;SDS011;766;51.502;9.752;2022-12-18T00:40:16;9.43;;;4.83;;
1545;SDS011;766;51.502;9.752;2022-12-18T00:42:46;11.07;;;4.93;;
1545;SDS011;766;51.502;9.752;2022-12-18T00:45:24;9.50;;;3.67;;
1545;SDS011;766;51.502;9.752;2022-12-18T00:48:00;8.93;;;3.70;;
1545;SDS011;766;51.502;9.752;2022-12-18T00:50:40;10.90;;;4.37;;
1545;SDS011;766;51.502;9.752;2022-12-18T00:53:15;9.37;;;4.33;;
1545;SDS011;766;51.502;9.752;2022-12-18T00:55:44;15.43;;;5.17;;
1545;SDS011;766;51.502;9.752;2022-12-18T00:58:30;20.37;;;6.63;;
1545;SDS011;766;51.502;9.752;2022-12-18T01:01:04;10.83;;;4.90;;
1545;SDS011;766;51.502;9.752;2022-12-18T01:03:33;19.97;;;5.80;;
1545;SDS011;766;51.502;9.752;2022-12-18T01:06:05;12.90;;;5.17;;
1545;SDS011;766;51.502;9.752;2022-12-18T01:08:34;16.90;;;5.47;;
1545;SDS011;766;51.502;9.752;2022-12-18T01:11:06;9.87;;;4.57;;
1545;SDS011;766;51.502;9.752;2022-12-18T01:13:37;12.53;;;5.03;;
1545;SDS011;766;51.502;9.752;2022-12-18T01:16:07;10.73;;;4.50;;
1545;SDS011;766;51.502;9.752;2022-12-18T01:18:35;8.83;;;5.00;;
1545;SDS011;766;51.502;9.752;2022-12-18T01:21:05;12.63;;;4.77;;
1545;SDS011;766;51.502;9.752;2022-12-18T01:23:34;12.10;;;5.00;;
1545;SDS011;766;51.502;9.752;2022-12-18T01:26:04;15.03;;;5.60;;
1545;SDS011;766;51.502;9.752;2022-12-18T01:28:33;12.07;;;5.20;;
1545;SDS011;766;51.502;9.752;2022-12-18T01:31:14;14.30;;;5.40;;
1545;SDS011;766;51.502;9.752;2022-12-18T01:33:44;15.73;;;5.20;;
1545;SDS011;766;51.502;9.752;2022-12-18T01:36:17;10.80;;;5.27;;
1545;SDS011;766;51.502;9.752;2022-12-18T01:38:46;12.93;;;5.57;;
1545;SDS011;766;51.502;9.752;2022-12-18T01:41:16;11.97;;;5.70;;
1545;SDS011;766;51.502;9.752;2022-12-18T01:43:46;13.60;;;5.67;;
1545;SDS011;766;51.502;9.752;2022-12-18T01:46:21;13.03;;;6.07;;
1545;SDS011;766;51.502;9.752;2022-12-18T01:48:53;13.23;;;5.70;;
1545;SDS011;766;51.502;9.752;2022-12-18T01:51:24;15.70;;;6.50;;
1545;SDS011;766;51.502;9.752;2022-12-18T01:53:55;15.60;;;6.43;;
1545;SDS011;766;51.502;9.752;2022-12-18T01:56:24;12.13;;;5.63;;
1545;SDS011;766;51.502;9.752;2022-12-18T01:58:54;15.63;;;6.10;;
1545;SDS011;766;51.502;9.752;2022-12-18T02:01:27;15.00;;;6.83;;
1545;SDS011;766;51.502;9.752;2022-12-18T02:04:13;14.10;;;6.27;;
1545;SDS011;766;51.502;9.752;2022-12-18T02:06:47;13.10;;;6.03;;
1545;SDS011;766;51.502;9.752;2022-12-18T02:09:23;19.40;;;6.00;;
1545;SDS011;766;51.502;9.752;2022-12-18T02:11:56;17.40;;;7.03;;
1545;SDS011;766;51.502;9.752;2022-12-18T02:14:34;21.47;;;8.13;;
1545;SDS011;766;51.502;9.752;2022-12-18T02:17:10;30.70;;;10.90;;
1545;SDS011;766;51.502;9.752;2022-12-18T02:19:47;19.63;;;7.73;;
1545;SDS011;766;51.502;9.752;2022-12-18T02:22:30;26.30;;;8.03;;
1545;SDS011;766;51.502;9.752;2022-12-18T02:25:10;20.17;;;7.30;;
1545;SDS011;766;51.502;9.752;2022-12-18T02:27:46;19.40;;;7.43;;
1545;SDS011;766;51.502;9.752;2022-12-18T02:30:16;17.50;;;7.20;;
1545;SDS011;766;51.502;9.752;2022-12-18T02:32:49;15.30;;;6.90;;
1545;SDS011;766;51.502;9.752;2022-12-18T02:35:20;16.80;;;7.40;;
1545;SDS011;766;51.502;9.752;2022-12-18T02:37:51;13.57;;;6.70;;
1545;SDS011;766;51.502;9.752;2022-12-18T02:40:22;18.33;;;7.37;;
1545;SDS011;766;51.502;9.752;2022-12-18T02:42:54;15.00;;;6.93;;
1545;SDS011;766;51.502;9.752;2022-12-18T02:45:24;13.87;;;6.63;;
1545;SDS011;766;51.502;9.752;2022-12-18T02:47:53;13.67;;;6.40;;
1545;SDS011;766;51.502;9.752;2022-12-18T02:50:22;16.43;;;6.77;;
1545;SDS011;766;51.502;9.752;2022-12-18T02:53:01;14.77;;;5.47;;
1545;SDS011;766;51.502;9.752;2022-12-18T02:55:41;12.27;;;6.10;;
1545;SDS011;766;51.502;9.752;2022-12-18T02:58:23;13.77;;;5.87;;
1545;SDS011;766;51.502;9.752;2022-12-18T03:00:58;14.63;;;6.20;;
1545;SDS011;766;51.502;9.752;2022-12-18T03:03:29;16.33;;;6.37;;
1545;SDS011;766;51.502;9.752;2022-12-18T03:06:03;16.40;;;6.97;;
1545;SDS011;766;51.502;9.752;2022-12-18T03:08:37;15.93;;;6.73;;
1545;SDS011;766;51.502;9.752;2022-12-18T03:11:10;14.40;;;6.87;;
1545;SDS011;766;51.502;9.752;2022-12-18T03:14:04;16.97;;;7.17;;
1545;SDS011;766;51.502;9.752;2022-12-18T03:16:34;15.57;;;6.73;;
1545;SDS011;766;51.502;9.752;2022-12-18T03:19:05;19.00;;;6.60;;
1545;SDS011;766;51.502;9.752;2022-12-18T03:21:38;12.87;;;5.17;;
1545;SDS011;766;51.502;9.752;2022-12-18T03:24:10;12.33;;;6.37;;
1545;SDS011;766;51.502;9.752;2022-12-18T03:26:40;13.63;;;6.43;;
1545;SDS011;766;51.502;9.752;2022-12-18T03:29:14;11.90;;;5.93;;
1545;SDS011;766;51.502;9.752;2022-12-18T03:31:47;12.53;;;6.20;;
1545;SDS011;766;51.502;9.752;2022-12-18T03:34:21;15.33;;;6.43;;
1545;SDS011;766;51.502;9.752;2022-12-18T03:36:55;13.43;;;6.27;;
1545;SDS011;766;51.502;9.752;2022-12-18T03:39:24;13.27;;;5.97;;
1545;SDS011;766;51.502;9.752;2022-12-18T03:41:55;13.50;;;5.73;;
1545;SDS011;766;51.502;9.752;2022-12-18T03:44:31;13.17;;;6.07;;
1545;SDS011;766;51.502;9.752;2022-12-18T03:47:07;14.73;;;6.10;;
1545;SDS011;766;51.502;9.752;2022-12-18T03:49:43;16.10;;;6.33;;
1545;SDS011;766;51.502;9.752;2022-12-18T03:52:17;12.03;;;6.10;;
1545;SDS011;766;51.502;9.752;2022-12-18T03:54:51;15.23;;;6.57;;
1545;SDS011;766;51.502;9.752;2022-12-18T03:57:22;14.77;;;6.70;;
1545;SDS011;766;51.502;9.752;2022-12-18T03:59:58;18.27;;;7.30;;
1545;SDS011;766;51.502;9.752;2022-12-18T04:02:30;15.70;;;7.40;;
1545;SDS011;766;51.502;9.752;2022-12-18T04:05:01;13.40;;;6.97;;
1545;SDS011;766;51.502;9.752;2022-12-18T04:07:32;16.83;;;7.30;;
1545;SDS011;766;51.502;9.752;2022-12-18T04:10:01;16.37;;;6.90;;
1545;SDS011;766;51.502;9.752;2022-12-18T04:12:30;20.73;;;8.00;;
1545;SDS011;766;51.502;9.752;2022-12-18T04:15:01;16.00;;;6.73;;
1545;SDS011;766;51.502;9.752;2022-12-18T04:17:30;19.60;;;7.63;;
1545;SDS011;766;51.502;9.752;2022-12-18T04:19:58;16.87;;;7.13;;
1545;SDS011;766;51.502;9.752;2022-12-18T04:22:26;15.37;;;7.07;;
1545;SDS011;766;51.502;9.752;2022-12-18T04:24:55;17.20;;;6.43;;
1545;SDS011;766;51.502;9.752;2022-12-18T04:27:23;13.70;;;6.23;;
1545;SDS011;766;51.502;9.752;2022-12-18T04:29:52;15.13;;;6.50;;
1545;SDS011;766;51.502;9.752;2022-12-18T04:32:22;11.73;;;5.67;;
1545;SDS011;766;51.502;9.752;2022-12-18T04:34:50;9.83;;;4.33;;
1545;SDS011;766;51.502;9.752;2022-12-18T04:37:18;9.93;;;5.13;;
1545;SDS011;766;51.502;9.752;2022-12-18T04:39:46;12.33;;;5.37;;
1545;SDS011;766;51.502;9.752;2022-12-18T04:42:15;12.60;;;5.87;;
1545;SDS011;766;51.502;9.752;2022-12-18T04:44:44;13.83;;;5.63;;
1545;SDS011;766;51.502;9.752;2022-12-18T04:47:12;16.60;;;5.83;;
1545;SDS011;766;51.502;9.752;2022-12-18T04:49:41;10.70;;;5.27;;
1545;SDS011;766;51.502;9.752;2022-12-18T04:52:10;14.77;;;6.03;;
1545;SDS011;766;51.502;9.752;2022-12-18T04:54:38;13.20;;;4.77;;
1545;SDS011;766;51.502;9.752;2022-12-18T04:57:07;12.60;;;5.70;;
1545;SDS011;766;51.502;9.752;2022-12-18T04:59:35;11.13;;;5.57;;
1545;SDS011;766;51.502;9.752;2022-12-18T05:02:03;21.00;;;6.13;;
1545;SDS011;766;51.502;9.752;2022-12-18T05:04:32;15.87;;;6.00;;
1545;SDS011;766;51.502;9.752;2022-12-18T05:07:02;15.80;;;6.20;;
1545;SDS011;766;51.502;9.752;2022-12-18T05:09:31;14.13;;;5.73;;
1545;SDS011;766;51.502;9.752;2022-12-18T05:11:59;13.73;;;6.47;;
1545;SDS011;766;51.502;9.752;2022-12-18T05:14:27;10.17;;;5.50;;
1545;SDS011;766;51.502;9.752;2022-12-18T05:16:56;12.77;;;5.20;;
1545;SDS011;766;51.502;9.752;2022-12-18T05:19:26;15.30;;;5.67;;
1545;SDS011;766;51.502;9.752;2022-12-18T05:21:55;17.67;;;6.03;;
1545;SDS011;766;51.502;9.752;2022-12-18T05:24:25;11.77;;;5.13;;
1545;SDS011;766;51.502;9.752;2022-12-18T05:26:54;11.10;;;4.73;;
1545;SDS011;766;51.502;9.752;2022-12-18T05:29:23;13.67;;;5.07;;
1545;SDS011;766;51.502;9.752;2022-12-18T05:31:51;13.63;;;5.43;;
1545;SDS011;766;51.502;9.752;2022-12-18T05:34:20;18.03;;;6.47;;
1545;SDS011;766;51.502;9.752;2022-12-18T05:36:48;10.07;;;5.43;;
1545;SDS011;766;51.502;9.752;2022-12-18T05:39:16;16.43;;;6.27;;
1545;SDS011;766;51.502;9.752;2022-12-18T05:41:46;19.00;;;8.10;;
1545;SDS011;766;51.502;9.752;2022-12-18T05:44:15;22.97;;;10.47;;
1545;SDS011;766;51.502;9.752;2022-12-18T05:46:43;14.57;;;7.50;;
1545;SDS011;766;51.502;9.752;2022-12-18T05:49:15;17.20;;;7.13;;
1545;SDS011;766;51.502;9.752;2022-12-18T05:51:43;14.87;;;6.23;;
1545;SDS011;766;51.502;9.752;2022-12-18T05:54:12;12.33;;;5.77;;
1545;SDS011;766;51.502;9.752;2022-12-18T05:56:40;10.70;;;5.30;;
1545;SDS011;766;51.502;9.752;2022-12-18T05:59:15;11.97;;;6.30;;
1545;SDS011;766;51.502;9.752;2022-12-18T06:01:44;19.10;;;7.07;;
1545;SDS011;766;51.502;9.752;2022-12-18T06:04:12;19.20;;;7.00;;
1545;SDS011;766;51.502;9.752;2022-12-18T06:06:40;16.77;;;6.47;;
1545;SDS011;766;51.502;9.752;2022-12-18T06:09:09;14.37;;;6.70;;
1545;SDS011;766;51.502;9.752;2022-12-18T06:11:38;16.50;;;5.83;;
1545;SDS011;766;51.502;9.752;2022-12-18T06:14:06;14.70;;;6.23;;
1545;SDS011;766;51.502;9.752;2022-12-18T06:16:38;16.43;;;6.50;;
1545;SDS011;766;51.502;9.752;2022-12-18T06:19:06;14.53;;;6.43;;
1545;SDS011;766;51.502;9.752;2022-12-18T06:21:34;15.30;;;6.17;;
1545;SDS011;766;51.502;9.752;2022-12-18T06:24:03;16.77;;;6.47;;
1545;SDS011;766;51.502;9.752;2022-12-18T06:26:32;12.43;;;6.33;;
1545;SDS011;766;51.502;9.752;2022-12-18T06:29:01;16.80;;;7.50;;
1545;SDS011;766;51.502;9.752;2022-12-18T06:31:29;17.47;;;6.43;;
1545;SDS011;766;51.502;9.752;2022-12-18T06:33:59;19.17;;;7.10;;
1545;SDS011;766;51.502;9.752;2022-12-18T06:36:29;20.83;;;7.63;;
1545;SDS011;766;51.502;9.752;2022-12-18T06:38:58;20.10;;;7.53;;
1545;SDS011;766;51.502;9.752;2022-12-18T06:41:26;16.50;;;7.83;;
1545;SDS011;766;51.502;9.752;2022-12-18T06:43:54;18.63;;;8.40;;
1545;SDS011;766;51.502;9.752;2022-12-18T06:46:26;17.87;;;8.17;;
1545;SDS011;766;51.502;9.752;2022-12-18T06:48:55;25.27;;;9.03;;
1545;SDS011;766;51.502;9.752;2022-12-18T06:51:25;20.43;;;7.53;;
1545;SDS011;766;51.502;9.752;2022-12-18T06:53:54;17.70;;;6.27;;
1545;SDS011;766;51.502;9.752;2022-12-18T06:56:22;22.97;;;7.43;;
1545;SDS011;766;51.502;9.752;2022-12-18T06:58:51;17.00;;;7.30;;
1545;SDS011;766;51.502;9.752;2022-12-18T07:01:19;21.53;;;9.13;;
1545;SDS011;766;51.502;9.752;2022-12-18T07:03:51;24.73;;;11.17;;
1545;SDS011;766;51.502;9.752;2022-12-18T07:06:21;20.87;;;9.83;;
1545;SDS011;766;51.502;9.752;2022-12-18T07:08:53;18.40;;;8.17;;
1545;SDS011;766;51.502;9.752;2022-12-18T07:11:22;21.63;;;8.73;;
1545;SDS011;766;51.502;9.752;2022-12-18T07:13:51;22.80;;;8.50;;
1545;SDS011;766;51.502;9.752;2022-12-18T07:16:20;14.73;;;5.60;;
1545;SDS011;766;51.502;9.752;2022-12-18T07:18:52;20.47;;;9.43;;
1545;SDS011;766;51.502;9.752;2022-12-18T07:21:23;26.63;;;9.97;;
1545;SDS011;766;51.502;9.752;2022-12-18T07:23:54;21.50;;;9.33;;
1545;SDS011;766;51.502;9.752;2022-12-18T07:26:25;22.83;;;10.03;;
1545;SDS011;766;51.502;9.752;2022-12-18T07:28:54;22.87;;;11.30;;
1545;SDS011;766;51.502;9.752;2022-12-18T07:31:24;19.10;;;9.07;;
1545;SDS011;766;51.502;9.752;2022-12-18T07:33:53;21.83;;;9.60;;
1545;SDS011;766;51.502;9.752;2022-12-18T07:36:22;24.20;;;10.60;;
1545;SDS011;766;51.502;9.752;2022-12-18T07:38:51;31.10;;;13.63;;
1545;SDS011;766;51.502;9.752;2022-12-18T07:41:22;25.77;;;11.90;;
1545;SDS011;766;51.502;9.752;2022-12-18T07:43:50;24.30;;;10.00;;
1545;SDS011;766;51.502;9.752;2022-12-18T07:46:20;23.33;;;9.43;;
1545;SDS011;766;51.502;9.752;2022-12-18T07:48:48;21.57;;;8.63;;
1545;SDS011;766;51.502;9.752;2022-12-18T07:51:17;19.53;;;8.73;;
1545;SDS011;766;51.502;9.752;2022-12-18T07:53:46;27.17;;;8.90;;
1545;SDS011;766;51.502;9.752;2022-12-18T07:56:18;22.23;;;7.50;;
1545;SDS011;766;51.502;9.752;2022-12-18T07:58:58;23.70;;;8.60;;
1545;SDS011;766;51.502;9.752;2022-12-18T08:01:27;22.83;;;8.73;;
1545;SDS011;766;51.502;9.752;2022-12-18T08:03:56;20.97;;;8.23;;
1545;SDS011;766;51.502;9.752;2022-12-18T08:06:25;18.23;;;7.83;;
1545;SDS011;766;51.502;9.752;2022-12-18T08:08:54;16.10;;;6.57;;
1545;SDS011;766;51.502;9.752;2022-12-18T08:11:24;19.73;;;6.60;;
1545;SDS011;766;51.502;9.752;2022-12-18T08:13:53;16.93;;;6.47;;
1545;SDS011;766;51.502;9.752;2022-12-18T08:16:24;15.17;;;6.90;;
1545;SDS011;766;51.502;9.752;2022-12-18T08:18:54;12.50;;;5.53;;
1545;SDS011;766;51.502;9.752;2022-12-18T08:21:25;9.83;;;4.40;;
1545;SDS011;766;51.502;9.752;2022-12-18T08:23:54;11.20;;;4.40;;
1545;SDS011;766;51.502;9.752;2022-12-18T08:26:24;7.93;;;3.90;;
1545;SDS011;766;51.502;9.752;2022-12-18T08:28:55;12.03;;;3.90;;
1545;SDS011;766;51.502;9.752;2022-12-18T08:31:26;11.10;;;4.60;;
1545;SDS011;766;51.502;9.752;2022-12-18T08:33:55;25.50;;;8.77;;
1545;SDS011;766;51.502;9.752;2022-12-18T08:36:24;15.43;;;7.00;;
1545;SDS011;766;51.502;9.752;2022-12-18T08:38:53;11.83;;;4.80;;
1545;SDS011;766;51.502;9.752;2022-12-18T08:41:22;10.53;;;3.43;;
1545;SDS011;766;51.502;9.752;2022-12-18T08:43:50;7.70;;;3.67;;
1545;SDS011;766;51.502;9.752;2022-12-18T08:46:38;7.33;;;3.30;;
1545;SDS011;766;51.502;9.752;2022-12-18T08:49:08;12.80;;;4.83;;
1545;SDS011;766;51.502;9.752;2022-12-18T08:51:38;9.93;;;4.37;;
1545;SDS011;766;51.502;9.752;2022-12-18T08:54:07;7.87;;;3.73;;
1545;SDS011;766;51.502;9.752;2022-12-18T08:56:39;10.33;;;4.13;;
1545;SDS011;766;51.502;9.752;2022-12-18T08:59:08;8.13;;;3.90;;
1545;SDS011;766;51.502;9.752;2022-12-18T09:01:44;11.80;;;4.13;;
1545;SDS011;766;51.502;9.752;2022-12-18T09:04:13;10.67;;;5.03;;
1545;SDS011;766;51.502;9.752;2022-12-18T09:06:42;12.00;;;6.17;;
1545;SDS011;766;51.502;9.752;2022-12-18T09:09:10;9.87;;;4.30;;
1545;SDS011;766;51.502;9.752;2022-12-18T09:11:38;17.00;;;6.03;;
1545;SDS011;766;51.502;9.752;2022-12-18T09:14:07;17.40;;;6.37;;
1545;SDS011;766;51.502;9.752;2022-12-18T09:16:37;14.93;;;5.07;;
1545;SDS011;766;51.502;9.752;2022-12-18T09:19:08;14.43;;;5.73;;
1545;SDS011;766;51.502;9.752;2022-12-18T09:21:37;11.93;;;5.00;;
1545;SDS011;766;51.502;9.752;2022-12-18T09:24:16;12.33;;;4.87;;
1545;SDS011;766;51.502;9.752;2022-12-18T09:26:44;9.77;;;4.37;;
1545;SDS011;766;51.502;9.752;2022-12-18T09:29:13;9.90;;;4.03;;
1545;SDS011;766;51.502;9.752;2022-12-18T09:31:44;7.07;;;3.70;;
1545;SDS011;766;51.502;9.752;2022-12-18T09:34:15;9.50;;;4.03;;
1545;SDS011;766;51.502;9.752;2022-12-18T09:36:43;13.70;;;4.03;;
1545;SDS011;766;51.502;9.752;2022-12-18T09:39:12;8.23;;;3.80;;
1545;SDS011;766;51.502;9.752;2022-12-18T09:41:44;13.33;;;3.97;;
1545;SDS011;766;51.502;9.752;2022-12-18T09:44:19;9.30;;;4.67;;
1545;SDS011;766;51.502;9.752;2022-12-18T09:46:53;10.00;;;5.10;;
1545;SDS011;766;51.502;9.752;2022-12-18T09:49:39;10.60;;;4.10;;
1545;SDS011;766;51.502;9.752;2022-12-18T09:52:12;11.70;;;5.30;;
1545;SDS011;766;51.502;9.752;2022-12-18T09:54:47;12.07;;;6.10;;
1545;SDS011;766;51.502;9.752;2022-12-18T09:57:22;16.37;;;7.00;;
1545;SDS011;766;51.502;9.752;2022-12-18T09:59:53;11.93;;;6.13;;
1545;SDS011;766;51.502;9.752;2022-12-18T10:02:30;15.93;;;6.87;;
1545;SDS011;766;51.502;9.752;2022-12-18T10:05:05;6.20;;;3.83;;
1545;SDS011;766;51.502;9.752;2022-12-18T10:07:41;12.60;;;5.03;;
1545;SDS011;766;51.502;9.752;2022-12-18T10:10:27;12.37;;;5.70;;
1545;SDS011;766;51.502;9.752;2022-12-18T10:13:09;7.50;;;3.73;;
1545;SDS011;766;51.502;9.752;2022-12-18T10:15:52;8.10;;;3.13;;
1545;SDS011;766;51.502;9.752;2022-12-18T10:18:39;6.97;;;3.17;;
1545;SDS011;766;51.502;9.752;2022-12-18T10:21:24;6.70;;;3.20;;
1545;SDS011;766;51.502;9.752;2022-12-18T10:23:59;8.57;;;3.23;;
1545;SDS011;766;51.502;9.752;2022-12-18T10:26:33;8.63;;;3.40;;
1545;SDS011;766;51.502;9.752;2022-12-18T10:29:04;8.33;;;3.60;;
1545;SDS011;766;51.502;9.752;2022-12-18T10:31:38;7.37;;;3.17;;
1545;SDS011;766;51.502;9.752;2022-12-18T10:34:09;11.40;;;3.90;;
1545;SDS011;766;51.502;9.752;2022-12-18T10:36:42;5.13;;;2.43;;
1545;SDS011;766;51.502;9.752;2022-12-18T10:39:14;7.90;;;3.60;;
1545;SDS011;766;51.502;9.752;2022-12-18T10:41:44;10.50;;;3.87;;
1545;SDS011;766;51.502;9.752;2022-12-18T10:44:15;9.13;;;3.57;;
1545;SDS011;766;51.502;9.752;2022-12-18T10:46:49;7.33;;;3.13;;
1545;SDS011;766;51.502;9.752;2022-12-18T10:49:23;6.50;;;3.00;;
1545;SDS011;766;51.502;9.752;2022-12-18T10:52:05;6.47;;;3.30;;
1545;SDS011;766;51.502;9.752;2022-12-18T10:54:45;6.37;;;2.90;;
1545;SDS011;766;51.502;9.752;2022-12-18T10:57:28;7.27;;;3.30;;
1545;SDS011;766;51.502;9.752;2022-12-18T11:00:01;7.00;;;2.83;;
1545;SDS011;766;51.502;9.752;2022-12-18T11:02:52;5.90;;;3.40;;
1545;SDS011;766;51.502;9.752;2022-12-18T11:05:26;7.13;;;3.40;;
1545;SDS011;766;51.502;9.752;2022-12-18T11:07:58;7.77;;;3.33;;
1545;SDS011;766;51.502;9.752;2022-12-18T11:10:28;5.70;;;3.37;;
1545;SDS011;766;51.502;9.752;2022-12-18T11:13:09;7.20;;;3.43;;
1545;SDS011;766;51.502;9.752;2022-12-18T11:15:39;9.37;;;4.17;;
1545;SDS011;766;51.502;9.752;2022-12-18T11:18:15;6.97;;;3.70;;
1545;SDS011;766;51.502;9.752;2022-12-18T11:20:50;5.90;;;2.67;;
1545;SDS011;766;51.502;9.752;2022-12-18T11:23:26;7.80;;;3.77;;
1545;SDS011;766;51.502;9.752;2022-12-18T11:25:58;7.07;;;3.70;;
1545;SDS011;766;51.502;9.752;2022-12-18T11:28:29;6.93;;;3.33;;
1545;SDS011;766;51.502;9.752;2022-12-18T11:31:16;8.93;;;3.47;;
1545;SDS011;766;51.502;9.752;2022-12-18T11:33:52;13.07;;;4.53;;
1545;SDS011;766;51.502;9.752;2022-12-18T11:36:47;7.23;;;3.67;;
1545;SDS011;766;51.502;9.752;2022-12-18T11:39:19;7.37;;;3.30;;
1545;SDS011;766;51.502;9.752;2022-12-18T11:41:52;7.97;;;3.87;;
1545;SDS011;766;51.502;9.752;2022-12-18T11:44:41;5.93;;;3.50;;
1545;SDS011;766;51.502;9.752;2022-12-18T11:47:16;6.13;;;2.77;;
1545;SDS011;766;51.502;9.752;2022-12-18T11:49:55;9.60;;;4.10;;
1545;SDS011;766;51.502;9.752;2022-12-18T11:52:28;7.77;;;3.47;;
1545;SDS011;766;51.502;9.752;2022-12-18T11:55:09;8.13;;;3.80;;
1545;SDS011;766;51.502;9.752;2022-12-18T11:57:40;7.73;;;4.10;;
1545;SDS011;766;51.502;9.752;2022-12-18T12:00:18;8.18;;;4.35;;
1545;SDS011;766;51.502;9.752;2022-12-18T12:02:53;9.00;;;4.10;;
1545;SDS011;766;51.502;9.752;2022-12-18T12:05:49;9.17;;;4.07;;
1545;SDS011;766;51.502;9.752;2022-12-18T12:08:29;7.40;;;3.53;;
1545;SDS011;766;51.502;9.752;2022-12-18T12:11:09;8.07;;;3.77;;
1545;SDS011;766;51.502;9.752;2022-12-18T12:13:51;8.27;;;3.60;;
1545;SDS011;766;51.502;9.752;2022-12-18T12:16:29;9.83;;;4.23;;
1545;SDS011;766;51.502;9.752;2022-12-18T12:19:10;7.67;;;3.87;;
1545;SDS011;766;51.502;9.752;2022-12-18T12:21:50;8.20;;;3.87;;
1545;SDS011;766;51.502;9.752;2022-12-18T12:24:25;7.73;;;3.97;;
1545;SDS011;766;51.502;9.752;2022-12-18T12:27:03;7.60;;;3.67;;
1545;SDS011;766;51.502;9.752;2022-12-18T12:29:40;8.70;;;3.73;;
1545;SDS011;766;51.502;9.752;2022-12-18T12:32:22;8.87;;;3.90;;
1545;SDS011;766;51.502;9.752;2022-12-18T12:35:06;7.37;;;3.97;;
1545;SDS011;766;51.502;9.752;2022-12-18T12:37:45;10.10;;;3.93;;
1545;SDS011;766;51.502;9.752;2022-12-18T12:40:27;9.70;;;4.20;;
1545;SDS011;766;51.502;9.752;2022-12-18T12:43:31;6.87;;;3.73;;
1545;SDS011;766;51.502;9.752;2022-12-18T12:46:15;8.23;;;3.97;;
1545;SDS011;766;51.502;9.752;2022-12-18T12:48:47;7.33;;;3.50;;
1545;SDS011;766;51.502;9.752;2022-12-18T12:51:19;7.17;;;3.70;;
1545;SDS011;766;51.502;9.752;2022-12-18T12:53:50;7.33;;;3.70;;
1545;SDS011;766;51.502;9.752;2022-12-18T12:56:21;9.10;;;3.87;;
1545;SDS011;766;51.502;9.752;2022-12-18T12:58:55;6.87;;;3.70;;
1545;SDS011;766;51.502;9.752;2022-12-18T13:01:33;7.50;;;3.83;;
1545;SDS011;766;51.502;9.752;2022-12-18T13:04:12;7.93;;;3.93;;
1545;SDS011;766;51.502;9.752;2022-12-18T13:06:52;7.87;;;4.00;;
1545;SDS011;766;51.502;9.752;2022-12-18T13:09:29;10.03;;;3.50;;
1545;SDS011;766;51.502;9.752;2022-12-18T13:12:01;6.93;;;3.70;;
1545;SDS011;766;51.502;9.752;2022-12-18T13:14:50;6.33;;;3.93;;
1545;SDS011;766;51.502;9.752;2022-12-18T13:17:24;9.27;;;4.47;;
1545;SDS011;766;51.502;9.752;2022-12-18T13:20:07;7.60;;;3.30;;
1545;SDS011;766;51.502;9.752;2022-12-18T13:22:39;10.00;;;4.07;;
1545;SDS011;766;51.502;9.752;2022-12-18T13:28:05;6.27;;;3.40;;
1545;SDS011;766;51.502;9.752;2022-12-18T13:30:47;8.80;;;4.50;;
1545;SDS011;766;51.502;9.752;2022-12-18T13:33:30;9.17;;;3.40;;
1545;SDS011;766;51.502;9.752;2022-12-18T13:36:29;9.63;;;3.70;;
1545;SDS011;766;51.502;9.752;2022-12-18T13:48:18;8.97;;;3.37;;
1545;SDS011;766;51.502;9.752;2022-12-18T13:50:52;7.00;;;3.10;;
1545;SDS011;766;51.502;9.752;2022-12-18T13:53:27;6.33;;;3.30;;
1545;SDS011;766;51.502;9.752;2022-12-18T13:55:58;6.33;;;3.17;;
1545;SDS011;766;51.502;9.752;2022-12-18T13:58:26;8.50;;;3.77;;
1545;SDS011;766;51.502;9.752;2022-12-18T14:00:55;6.27;;;3.33;;
1545;SDS011;766;51.502;9.752;2022-12-18T14:03:28;8.40;;;3.90;;
1545;SDS011;766;51.502;9.752;2022-12-18T14:05:59;10.77;;;4.67;;
1545;SDS011;766;51.502;9.752;2022-12-18T14:08:36;7.93;;;3.50;;
1545;SDS011;766;51.502;9.752;2022-12-18T14:11:07;8.13;;;3.40;;
1545;SDS011;766;51.502;9.752;2022-12-18T14:13:48;7.97;;;3.00;;
1545;SDS011;766;51.502;9.752;2022-12-18T14:16:16;6.70;;;3.50;;
1545;SDS011;766;51.502;9.752;2022-12-18T14:18:48;7.57;;;3.17;;
1545;SDS011;766;51.502;9.752;2022-12-18T14:21:25;6.20;;;2.87;;
1545;SDS011;766;51.502;9.752;2022-12-18T14:24:05;5.80;;;3.43;;
1545;SDS011;766;51.502;9.752;2022-12-18T14:26:41;8.07;;;3.67;;
1545;SDS011;766;51.502;9.752;2022-12-18T14:29:21;6.83;;;3.27;;
1545;SDS011;766;51.502;9.752;2022-12-18T14:34:44;8.97;;;3.77;;
1545;SDS011;766;51.502;9.752;2022-12-18T14:37:14;7.40;;;3.53;;
1545;SDS011;766;51.502;9.752;2022-12-18T14:39:54;9.37;;;3.90;;
1545;SDS011;766;51.502;9.752;2022-12-18T14:42:24;7.07;;;3.70;;
1545;SDS011;766;51.502;9.752;2022-12-18T14:48:08;8.80;;;3.93;;
1545;SDS011;766;51.502;9.752;2022-12-18T14:50:57;8.13;;;3.37;;
1545;SDS011;766;51.502;9.752;2022-12-18T14:53:37;7.40;;;3.63;;
1545;SDS011;766;51.502;9.752;2022-12-18T14:56:14;8.40;;;3.80;;
1545;SDS011;766;51.502;9.752;2022-12-18T14:58:45;10.53;;;4.10;;
1545;SDS011;766;51.502;9.752;2022-12-18T15:01:18;8.00;;;3.97;;
1545;SDS011;766;51.502;9.752;2022-12-18T15:03:50;10.77;;;4.50;;
1545;SDS011;766;51.502;9.752;2022-12-18T15:06:25;13.80;;;5.38;;
1545;SDS011;766;51.502;9.752;2022-12-18T15:08:56;10.07;;;5.17;;
1545;SDS011;766;51.502;9.752;2022-12-18T15:11:26;9.47;;;4.57;;
1545;SDS011;766;51.502;9.752;2022-12-18T15:13:57;8.63;;;4.63;;
1545;SDS011;766;51.502;9.752;2022-12-18T15:16:27;8.17;;;4.70;;
1545;SDS011;766;51.502;9.752;2022-12-18T15:18:55;8.77;;;4.60;;
1545;SDS011;766;51.502;9.752;2022-12-18T15:21:28;6.73;;;3.73;;
1545;SDS011;766;51.502;9.752;2022-12-18T15:23:58;8.80;;;4.20;;
1545;SDS011;766;51.502;9.752;2022-12-18T15:26:26;8.03;;;4.60;;
1545;SDS011;766;51.502;9.752;2022-12-18T15:29:05;10.23;;;4.87;;
1545;SDS011;766;51.502;9.752;2022-12-18T15:31:57;8.47;;;4.67;;
1545;SDS011;766;51.502;9.752;2022-12-18T15:34:29;12.17;;;5.30;;
1545;SDS011;766;51.502;9.752;2022-12-18T15:37:01;9.83;;;4.80;;
1545;SDS011;766;51.502;9.752;2022-12-18T15:39:30;8.97;;;4.53;;
1545;SDS011;766;51.502;9.752;2022-12-18T15:42:00;8.37;;;4.00;;
1545;SDS011;766;51.502;9.752;2022-12-18T15:44:46;9.00;;;4.43;;
1545;SDS011;766;51.502;9.752;2022-12-18T15:47:14;10.33;;;5.07;;
1545;SDS011;766;51.502;9.752;2022-12-18T15:49:43;11.30;;;5.10;;
1545;SDS011;766;51.502;9.752;2022-12-18T15:52:13;11.27;;;4.80;;
1545;SDS011;766;51.502;9.752;2022-12-18T15:54:53;9.37;;;4.87;;
1545;SDS011;766;51.502;9.752;2022-12-18T15:57:53;11.40;;;4.43;;
1545;SDS011;766;51.502;9.752;2022-12-18T16:00:22;8.57;;;4.37;;
1545;SDS011;766;51.502;9.752;2022-12-18T16:02:50;10.33;;;4.80;;
1545;SDS011;766;51.502;9.752;2022-12-18T16:05:19;11.27;;;5.17;;
1545;SDS011;766;51.502;9.752;2022-12-18T16:07:50;11.77;;;4.80;;
1545;SDS011;766;51.502;9.752;2022-12-18T16:10:19;12.43;;;5.57;;
1545;SDS011;766;51.502;9.752;2022-12-18T16:12:48;9.70;;;4.93;;
1545;SDS011;766;51.502;9.752;2022-12-18T16:15:16;8.47;;;4.30;;